createdAt,value
2018-05-15T00:02:21.825Z,66.90
2018-05-15T00:04:49.957Z,66.20
2018-05-15T00:07:18.893Z,67.40
2018-05-15T00:09:47.065Z,66.50
2018-05-15T00:12:15.195Z,66.77
2018-05-15T00:14:44.092Z,66.83
2018-05-15T00:17:13.043Z,67.93
2018-05-15T00:19:41.196Z,65.83
2018-05-15T00:22:09.366Z,69.50
2018-05-15T00:24:37.526Z,70.33
2018-05-15T00:27:05.661Z,73.87
2018-05-15T00:29:33.821Z,71.57
2018-05-15T00:32:01.965Z,68.73
2018-05-15T00:34:30.122Z,67.33
2018-05-15T00:36:58.269Z,72.07
2018-05-15T00:39:27.170Z,67.50
2018-05-15T00:41:55.373Z,69.80
2018-05-15T00:44:23.503Z,69.90
2018-05-15T00:46:52.404Z,71.03
2018-05-15T00:49:21.326Z,72.27
2018-05-15T00:51:49.532Z,72.03
2018-05-15T00:54:18.380Z,72.47
2018-05-15T00:56:46.589Z,69.03
2018-05-15T00:59:14.894Z,73.63
2018-05-15T01:01:43.056Z,72.00
2018-05-15T01:04:11.197Z,73.07
2018-05-15T01:06:39.355Z,75.07
2018-05-15T01:09:07.504Z,75.37
2018-05-15T01:11:36.530Z,74.90
2018-05-15T01:14:04.644Z,76.47
2018-05-15T01:16:32.794Z,77.40
2018-05-15T01:19:00.950Z,75.40
2018-05-15T01:21:29.230Z,79.43
2018-05-15T01:23:57.372Z,79.73
2018-05-15T01:26:26.305Z,79.70
2018-05-15T01:28:54.459Z,78.50
2018-05-15T01:31:22.608Z,79.10
2018-05-15T01:33:50.765Z,81.87
2018-05-15T01:36:18.900Z,82.50
2018-05-15T01:38:47.055Z,78.47
2018-05-15T01:41:15.196Z,84.23
2018-05-15T01:43:44.113Z,83.47
2018-05-15T01:46:12.238Z,79.57
2018-05-15T01:48:40.452Z,83.00
2018-05-15T01:51:09.769Z,86.83
2018-05-15T01:53:37.949Z,85.53
2018-05-15T01:56:06.124Z,83.60
2018-05-15T01:58:34.308Z,86.60
2018-05-15T02:01:02.462Z,80.30
2018-05-15T02:03:30.606Z,87.67
2018-05-15T02:05:59.526Z,82.63
2018-05-15T02:08:27.734Z,81.87
2018-05-15T02:10:55.975Z,84.37
2018-05-15T02:13:24.150Z,88.83
2018-05-15T02:15:52.320Z,88.07
2018-05-15T02:18:20.492Z,91.80
2018-05-15T02:20:48.667Z,87.03
2018-05-15T02:23:16.874Z,84.57
2018-05-15T02:25:45.004Z,88.40
2018-05-15T02:28:13.200Z,87.57
2018-05-15T02:30:41.354Z,87.00
2018-05-15T02:33:09.540Z,78.87
2018-05-15T02:35:37.704Z,80.40
2018-05-15T02:38:05.904Z,80.87
2018-05-15T02:40:34.072Z,86.37
2018-05-15T02:43:02.233Z,79.00
2018-05-15T02:45:30.372Z,79.27
2018-05-15T02:47:59.301Z,80.07
2018-05-15T02:50:27.569Z,84.20
2018-05-15T02:52:55.718Z,83.40
2018-05-15T02:55:24.704Z,85.70
2018-05-15T02:57:53.612Z,83.80
2018-05-15T03:00:21.806Z,79.43
2018-05-15T03:02:49.952Z,80.87
2018-05-15T03:05:18.886Z,83.93
2018-05-15T03:07:47.024Z,76.23
2018-05-15T03:10:15.184Z,80.00
2018-05-15T03:12:44.097Z,81.77
2018-05-15T03:15:12.227Z,77.67
2018-05-15T03:17:40.379Z,73.27
2018-05-15T03:20:08.541Z,76.70
2018-05-15T03:22:36.714Z,84.17
2018-05-15T03:25:04.849Z,79.97
2018-05-15T03:27:33.753Z,79.37
2018-05-15T03:30:01.965Z,80.27
2018-05-15T03:32:30.244Z,78.93
2018-05-15T03:34:58.377Z,81.50
2018-05-15T03:37:26.539Z,75.03
2018-05-15T03:39:54.721Z,73.27
2018-05-15T03:42:23.014Z,73.37
2018-05-15T03:44:51.131Z,78.30
2018-05-15T03:47:19.272Z,81.37
2018-05-15T03:49:47.533Z,76.40
2018-05-15T03:52:15.729Z,76.27
2018-05-15T03:54:43.878Z,72.63
2018-05-15T03:57:12.049Z,68.97
2018-05-15T03:59:40.222Z,68.67
2018-05-15T04:02:21.183Z,77.43
2018-05-15T04:08:12.048Z,78.93
2018-05-15T04:10:40.188Z,78.67
2018-05-15T04:13:08.404Z,78.80
2018-05-15T04:15:36.541Z,77.83
2018-05-15T04:18:04.717Z,79.57
2018-05-15T04:20:32.877Z,80.07
2018-05-15T04:23:01.032Z,86.07
2018-05-15T04:25:29.948Z,83.33
2018-05-15T04:27:58.190Z,80.03
2018-05-15T04:30:26.292Z,83.33
2018-05-15T04:32:54.479Z,81.27
2018-05-15T04:35:22.745Z,82.97
2018-05-15T04:37:50.814Z,80.27
2018-05-15T04:40:18.994Z,84.67
2018-05-15T04:42:47.165Z,83.27
2018-05-15T04:45:15.317Z,85.70
2018-05-15T04:47:44.226Z,87.20
2018-05-15T04:50:13.145Z,87.73
2018-05-15T04:52:41.316Z,80.97
2018-05-15T04:55:09.452Z,84.07
2018-05-15T04:57:37.595Z,79.63
2018-05-15T05:00:05.816Z,80.83
2018-05-15T05:02:33.972Z,84.07
2018-05-15T05:05:02.877Z,84.40
2018-05-15T05:07:31.017Z,81.37
2018-05-15T05:09:59.225Z,79.90
2018-05-15T05:12:27.404Z,85.50
2018-05-15T05:14:55.548Z,80.20
2018-05-15T05:17:24.484Z,82.90
2018-05-15T05:19:52.620Z,79.93
2018-05-15T05:22:20.764Z,82.20
2018-05-15T05:24:48.990Z,83.03
2018-05-15T05:27:17.177Z,80.57
2018-05-15T05:29:45.257Z,84.53
2018-05-15T05:32:13.428Z,79.30
2018-05-15T05:34:41.606Z,79.37
2018-05-15T05:37:09.728Z,78.03
2018-05-15T05:39:38.636Z,78.40
2018-05-15T05:42:06.796Z,81.57
2018-05-15T05:44:35.824Z,79.60
2018-05-15T05:47:03.997Z,78.43
2018-05-15T05:49:32.167Z,75.33
2018-05-15T05:52:00.392Z,75.27
2018-05-15T05:54:28.603Z,76.47
2018-05-15T05:56:56.748Z,73.37
2018-05-15T05:59:25.684Z,77.63
2018-05-15T06:01:53.827Z,75.70
2018-05-15T06:04:22.029Z,75.10
2018-05-15T06:06:50.217Z,72.77
2018-05-15T06:09:18.376Z,76.60
2018-05-15T06:11:46.534Z,73.43
2018-05-15T06:14:14.709Z,75.00
2018-05-15T06:16:42.910Z,70.87
2018-05-15T06:19:11.175Z,72.40
2018-05-15T06:21:39.338Z,76.77
2018-05-15T06:24:07.508Z,70.47
2018-05-15T06:26:35.650Z,71.40
2018-05-15T06:29:04.558Z,71.07
2018-05-15T06:31:32.804Z,71.40
2018-05-15T06:34:00.964Z,70.47
2018-05-15T06:36:30.640Z,73.57
2018-05-15T06:38:58.814Z,71.50
2018-05-15T06:41:26.970Z,69.63
2018-05-15T06:43:55.107Z,67.60
2018-05-15T06:46:23.560Z,68.97
2018-05-15T06:48:51.728Z,67.80
2018-05-15T06:51:19.908Z,68.50
2018-05-15T06:53:48.268Z,64.83
2018-05-15T06:56:16.396Z,66.60
2018-05-15T06:58:44.621Z,68.07
2018-05-15T07:01:12.792Z,67.67
2018-05-15T07:03:40.948Z,66.03
2018-05-15T07:06:09.096Z,66.60
2018-05-15T07:08:38.048Z,64.77
2018-05-15T07:11:06.200Z,64.30
2018-05-15T07:13:34.876Z,67.90
2018-05-15T07:16:03.038Z,67.43
2018-05-15T07:18:31.236Z,65.97
2018-05-15T07:20:59.396Z,64.63
2018-05-15T07:23:27.684Z,65.10
2018-05-15T07:25:55.823Z,66.47
2018-05-15T07:28:24.748Z,61.30
2018-05-15T07:30:52.951Z,62.63
2018-05-15T07:33:22.736Z,64.63
2018-05-15T07:35:50.921Z,62.90
2018-05-15T07:38:19.082Z,62.40
2018-05-15T07:40:47.196Z,64.77
2018-05-15T07:43:15.421Z,65.73
2018-05-15T07:45:43.708Z,62.77
2018-05-15T07:48:11.852Z,61.07
2018-05-15T07:50:40.766Z,61.53
2018-05-15T07:53:08.944Z,62.00
2018-05-15T07:55:37.219Z,61.07
2018-05-15T07:58:05.345Z,57.90
2018-05-15T08:00:33.489Z,57.63
2018-05-15T08:03:01.844Z,57.90
2018-05-15T08:05:29.999Z,58.63
2018-05-15T08:07:58.141Z,57.73
2018-05-15T08:10:26.363Z,57.43
2018-05-15T08:12:54.533Z,57.10
2018-05-15T08:15:22.701Z,54.07
2018-05-15T08:17:50.835Z,55.60
2018-05-15T08:20:18.969Z,54.13
2018-05-15T08:22:47.129Z,53.30
2018-05-15T08:25:15.409Z,54.03
2018-05-15T08:27:43.547Z,57.97
2018-05-15T08:30:11.757Z,57.80
2018-05-15T08:32:39.940Z,55.13
2018-05-15T08:35:08.207Z,54.83
2018-05-15T08:37:36.423Z,55.13
2018-05-15T08:40:04.557Z,54.53
2018-05-15T08:42:32.741Z,53.80
2018-05-15T08:45:00.889Z,51.90
2018-05-15T08:47:29.033Z,54.93
2018-05-15T08:49:57.985Z,52.40
2018-05-15T08:52:26.139Z,50.90
2018-05-15T08:54:54.305Z,51.90
2018-05-15T08:57:22.437Z,50.23
2018-05-15T08:59:50.661Z,46.47
2018-05-15T09:02:18.825Z,45.90
2018-05-15T09:04:46.983Z,46.90
2018-05-15T09:07:15.916Z,46.30
2018-05-15T09:09:44.061Z,43.93
2018-05-15T09:12:12.197Z,43.23
2018-05-15T09:14:40.397Z,44.90
2018-05-15T09:17:09.439Z,49.07
2018-05-15T09:19:37.576Z,50.63
2018-05-15T09:22:05.748Z,46.53
2018-05-15T09:24:33.900Z,47.50
2018-05-15T09:27:02.823Z,43.10
2018-05-15T09:29:30.992Z,42.27
2018-05-15T09:31:59.172Z,41.13
2018-05-15T09:34:27.288Z,37.97
2018-05-15T09:36:55.428Z,37.73
2018-05-15T09:39:23.566Z,41.07
2018-05-15T09:41:52.481Z,36.97
2018-05-15T09:44:20.629Z,37.10
2018-05-15T09:46:49.622Z,35.20
2018-05-15T09:49:17.673Z,35.00
2018-05-15T09:51:47.432Z,35.27
2018-05-15T09:54:15.580Z,36.70
2018-05-15T09:56:43.732Z,37.40
2018-05-15T09:59:12.772Z,33.03
2018-05-15T10:01:40.915Z,29.23
2018-05-15T10:04:09.940Z,30.17
2018-05-15T10:06:38.112Z,30.93
2018-05-15T10:09:06.289Z,33.07
2018-05-15T10:11:34.444Z,30.40
2018-05-15T10:14:02.598Z,26.67
2018-05-15T10:16:31.528Z,29.27
2018-05-15T10:18:59.670Z,28.30
2018-05-15T10:21:28.565Z,25.40
2018-05-15T10:23:57.480Z,24.57
2018-05-15T10:26:25.663Z,23.27
2018-05-15T10:28:53.829Z,23.20
2018-05-15T10:31:21.970Z,23.67
2018-05-15T10:33:50.989Z,23.20
2018-05-15T10:36:19.162Z,21.00
2018-05-15T10:38:47.312Z,20.43
2018-05-15T10:41:16.233Z,19.33
2018-05-15T10:43:44.441Z,19.83
2018-05-15T10:46:12.579Z,20.03
2018-05-15T10:48:40.858Z,18.40
2018-05-15T10:51:08.974Z,19.00
2018-05-15T10:53:37.127Z,16.97
2018-05-15T10:56:06.507Z,18.77
2018-05-15T10:58:34.795Z,16.60
2018-05-15T11:01:03.059Z,16.43
2018-05-15T11:03:31.336Z,15.10
2018-05-15T11:05:59.454Z,14.43
2018-05-15T11:08:27.607Z,14.43
2018-05-15T11:10:55.749Z,13.93
2018-05-15T11:13:24.031Z,14.10
2018-05-15T11:15:52.199Z,14.07
2018-05-15T11:18:32.186Z,13.40
2018-05-15T11:21:12.257Z,11.97
2018-05-15T11:23:52.353Z,12.10
2018-05-15T11:26:20.525Z,12.40
2018-05-15T11:28:48.674Z,12.70
2018-05-15T11:31:17.949Z,11.40
2018-05-15T11:33:46.119Z,12.37
2018-05-15T11:36:14.273Z,10.77
2018-05-15T11:38:42.423Z,10.47
2018-05-15T11:41:10.549Z,9.90
2018-05-15T11:43:38.779Z,9.30
2018-05-15T11:46:06.917Z,7.37
2018-05-15T11:48:36.406Z,6.67
2018-05-15T11:51:04.785Z,6.57
2018-05-15T11:53:32.249Z,6.20
2018-05-15T11:56:00.511Z,5.47
2018-05-15T11:58:28.625Z,5.20
2018-05-15T12:00:56.795Z,5.90
2018-05-15T12:03:24.991Z,5.73
2018-05-15T12:05:53.147Z,5.13
2018-05-15T12:08:21.430Z,6.03
2018-05-15T12:10:49.507Z,4.70
2018-05-15T12:13:17.709Z,4.87
2018-05-15T12:15:46.309Z,4.37
2018-05-15T12:18:14.529Z,4.20
2018-05-15T12:20:42.710Z,4.37
2018-05-15T12:23:10.913Z,4.63
2018-05-15T12:25:39.044Z,4.87
2018-05-15T12:28:07.312Z,5.10
2018-05-15T12:30:35.353Z,3.80
2018-05-15T12:33:03.493Z,4.40
2018-05-15T12:35:31.631Z,4.10
2018-05-15T12:38:00.555Z,4.00
2018-05-15T12:40:28.681Z,4.27
2018-05-15T12:42:57.701Z,5.00
2018-05-15T12:45:25.843Z,5.00
2018-05-15T12:47:54.828Z,5.30
2018-05-15T12:50:22.973Z,5.67
2018-05-15T12:52:51.098Z,5.87
2018-05-15T12:55:20.012Z,5.43
2018-05-15T12:57:48.176Z,5.47
2018-05-15T13:00:16.375Z,4.63
2018-05-15T13:02:44.557Z,5.20
2018-05-15T13:05:12.821Z,5.60
2018-05-15T13:07:40.969Z,5.70
2018-05-15T13:10:09.080Z,5.20
2018-05-15T13:12:37.322Z,4.90
2018-05-15T13:15:05.456Z,5.37
2018-05-15T13:17:33.577Z,5.53
2018-05-15T13:20:01.724Z,5.47
2018-05-15T13:22:30.652Z,6.23
2018-05-15T13:24:58.841Z,5.50
2018-05-15T13:27:27.000Z,5.43
2018-05-15T13:29:55.204Z,6.20
2018-05-15T13:32:23.331Z,5.23
2018-05-15T13:34:51.507Z,5.43
2018-05-15T13:37:19.654Z,6.53
2018-05-15T13:39:48.605Z,6.60
2018-05-15T13:42:16.755Z,5.33
2018-05-15T13:44:44.937Z,5.10
2018-05-15T13:47:13.110Z,6.87
2018-05-15T13:49:41.248Z,6.07
2018-05-15T13:52:10.161Z,5.60
2018-05-15T13:54:38.285Z,5.73
2018-05-15T13:57:06.502Z,5.47
2018-05-15T13:59:35.515Z,6.07
2018-05-15T14:02:03.633Z,6.10
2018-05-15T14:04:31.783Z,6.17
2018-05-15T14:07:00.049Z,6.20
2018-05-15T14:09:28.222Z,5.60
2018-05-15T14:11:56.374Z,5.57
2018-05-15T14:14:24.529Z,5.60
2018-05-15T14:16:53.421Z,5.23
2018-05-15T14:19:22.341Z,5.20
2018-05-15T14:21:50.461Z,4.57
2018-05-15T14:24:18.585Z,5.00
2018-05-15T14:26:46.723Z,5.20
2018-05-15T14:29:15.755Z,4.97
2018-05-15T14:31:43.865Z,4.77
2018-05-15T14:34:12.042Z,4.30
2018-05-15T14:36:40.163Z,4.47
2018-05-15T14:39:08.341Z,4.50
2018-05-15T14:44:35.540Z,4.60
2018-05-15T14:47:03.795Z,4.63
2018-05-15T14:49:31.916Z,4.30
2018-05-15T14:52:00.144Z,4.03
2018-05-15T14:54:28.289Z,4.17
2018-05-15T14:56:57.197Z,3.90
2018-05-15T14:59:26.612Z,4.20
2018-05-15T15:01:54.730Z,4.40
2018-05-15T15:04:22.902Z,4.53
2018-05-15T15:06:51.013Z,4.20
2018-05-15T15:09:19.153Z,4.40
2018-05-15T15:11:47.309Z,4.27
2018-05-15T15:14:15.444Z,4.20
2018-05-15T15:16:43.624Z,4.17
2018-05-15T15:19:11.740Z,3.97
2018-05-15T15:21:40.077Z,4.20
2018-05-15T15:24:08.238Z,4.00
2018-05-15T15:26:36.427Z,4.00
2018-05-15T15:29:04.587Z,3.70
2018-05-15T15:31:32.730Z,3.97
2018-05-15T15:34:00.884Z,4.10
2018-05-15T15:36:29.126Z,3.67
2018-05-15T15:38:57.313Z,3.67
2018-05-15T15:41:25.570Z,3.90
2018-05-15T15:43:53.886Z,3.70
2018-05-15T15:46:21.994Z,3.60
2018-05-15T15:48:50.894Z,3.63
2018-05-15T15:51:19.046Z,3.97
2018-05-15T15:53:47.271Z,3.70
2018-05-15T15:56:15.407Z,3.80
2018-05-15T15:58:44.427Z,3.63
2018-05-15T16:01:12.705Z,3.67
2018-05-15T16:03:40.980Z,3.53
2018-05-15T16:06:09.096Z,3.50
2018-05-15T16:08:37.264Z,3.90
2018-05-15T16:11:05.494Z,4.10
2018-05-15T16:13:33.635Z,3.87
2018-05-15T16:16:02.668Z,3.97
2018-05-15T16:18:30.946Z,3.70
2018-05-15T16:20:59.073Z,4.00
2018-05-15T16:23:27.206Z,4.10
2018-05-15T16:25:55.339Z,3.90
2018-05-15T16:28:24.255Z,3.73
2018-05-15T16:30:52.454Z,4.30
2018-05-15T16:33:20.576Z,3.73
2018-05-15T16:35:48.699Z,3.97
2018-05-15T16:38:16.863Z,3.90
2018-05-15T16:40:45.128Z,4.00
2018-05-15T16:43:13.297Z,3.90
2018-05-15T16:45:41.462Z,4.00
2018-05-15T16:48:09.583Z,3.67
2018-05-15T16:50:37.737Z,3.80
2018-05-15T16:53:05.845Z,3.77
2018-05-15T16:55:34.069Z,4.17
2018-05-15T16:58:02.309Z,4.10
2018-05-15T17:00:31.229Z,3.97
2018-05-15T17:02:59.373Z,3.80
2018-05-15T17:05:28.290Z,3.70
2018-05-15T17:07:56.493Z,3.60
2018-05-15T17:10:24.673Z,3.90
2018-05-15T17:12:52.796Z,3.70
2018-05-15T17:15:21.682Z,3.50
2018-05-15T17:17:50.604Z,3.57
2018-05-15T17:20:18.736Z,3.80
2018-05-15T17:22:47.654Z,3.70
2018-05-15T17:25:15.840Z,3.83
2018-05-15T17:27:44.120Z,3.90
2018-05-15T17:30:12.236Z,3.80
2018-05-15T17:32:40.396Z,3.73
2018-05-15T17:35:08.548Z,3.87
2018-05-15T17:37:36.688Z,3.90
2018-05-15T17:40:05.606Z,3.87
2018-05-15T17:42:33.776Z,4.03
2018-05-15T17:45:01.924Z,4.10
2018-05-15T17:47:30.861Z,4.20
2018-05-15T17:49:58.944Z,4.27
2018-05-15T17:52:27.101Z,4.03
2018-05-15T17:54:55.367Z,4.20
2018-05-15T17:57:23.532Z,4.03
2018-05-15T17:59:51.705Z,4.30
2018-05-15T18:02:20.684Z,3.97
2018-05-15T18:04:48.881Z,4.20
2018-05-15T18:07:17.156Z,3.97
2018-05-15T18:09:45.333Z,4.10
2018-05-15T18:12:13.505Z,4.20
2018-05-15T18:14:41.628Z,4.00
2018-05-15T18:17:09.759Z,4.00
2018-05-15T18:19:37.892Z,4.33
2018-05-15T18:22:06.819Z,4.50
2018-05-15T18:24:34.989Z,3.77
2018-05-15T18:27:03.128Z,4.10
2018-05-15T18:29:31.338Z,4.80
2018-05-15T18:31:59.615Z,4.20
2018-05-15T18:34:27.718Z,4.63
2018-05-15T18:36:55.880Z,4.20
2018-05-15T18:39:24.034Z,4.27
2018-05-15T18:44:45.580Z,4.77
2018-05-15T18:47:13.850Z,4.50
2018-05-15T18:49:41.981Z,4.60
2018-05-15T18:52:10.120Z,4.40
2018-05-15T18:54:38.281Z,4.13
2018-05-15T18:57:06.443Z,4.20
2018-05-15T18:59:35.418Z,4.00
2018-05-15T19:02:03.623Z,4.07
2018-05-15T19:04:31.749Z,4.13
2018-05-15T19:07:00.652Z,4.30
2018-05-15T19:09:29.636Z,4.17
2018-05-15T19:11:58.666Z,4.00
2018-05-15T19:14:27.042Z,4.07
2018-05-15T19:16:55.152Z,4.10
2018-05-15T19:19:23.394Z,4.20
2018-05-15T19:21:51.421Z,4.00
2018-05-15T19:24:20.341Z,4.20
2018-05-15T19:26:48.468Z,4.03
2018-05-15T19:29:16.669Z,4.20
2018-05-15T19:31:45.606Z,4.10
2018-05-15T19:34:19.488Z,4.33
2018-05-15T19:36:53.268Z,4.40
2018-05-15T19:39:28.001Z,4.30
2018-05-15T19:42:08.804Z,4.77
2018-05-15T19:44:36.977Z,4.30
2018-05-15T19:47:05.151Z,4.30
2018-05-15T19:49:33.416Z,4.43
2018-05-15T19:52:01.614Z,4.13
2018-05-15T19:54:40.738Z,4.23
2018-05-15T19:57:08.848Z,4.33
2018-05-15T19:59:37.084Z,4.77
2018-05-15T20:02:08.042Z,4.97
2018-05-15T20:04:36.294Z,4.60
2018-05-15T20:07:04.430Z,4.50
2018-05-15T20:09:33.324Z,4.70
2018-05-15T20:12:02.272Z,4.67
2018-05-15T20:14:30.512Z,5.20
2018-05-15T20:16:58.640Z,5.17
2018-05-15T20:19:26.793Z,4.93
2018-05-15T20:21:54.922Z,5.03
2018-05-15T20:24:23.863Z,5.17
2018-05-15T20:26:51.992Z,5.50
2018-05-15T20:29:20.185Z,5.23
2018-05-15T20:31:48.323Z,5.23
2018-05-15T20:34:17.228Z,5.90
2018-05-15T20:36:46.195Z,6.30
2018-05-15T20:39:14.262Z,5.70
2018-05-15T20:41:42.489Z,5.83
2018-05-15T20:44:10.653Z,5.50
2018-05-15T20:46:38.827Z,5.10
2018-05-15T20:49:06.944Z,5.50
2018-05-15T20:51:35.078Z,5.80
2018-05-15T20:54:03.258Z,5.70
2018-05-15T20:56:31.423Z,6.07
2018-05-15T20:58:59.551Z,6.70
2018-05-15T21:01:27.734Z,5.90
2018-05-15T21:03:55.939Z,6.53
2018-05-15T21:06:24.232Z,6.67
2018-05-15T21:08:52.345Z,6.30
2018-05-15T21:11:20.577Z,6.60
2018-05-15T21:13:48.689Z,7.17
2018-05-15T21:16:16.930Z,7.33
2018-05-15T21:18:45.074Z,7.30
2018-05-15T21:21:13.959Z,7.00
2018-05-15T21:23:42.961Z,6.67
2018-05-15T21:26:11.261Z,7.90
2018-05-15T21:28:39.433Z,8.03
2018-05-15T21:31:07.574Z,8.40
2018-05-15T21:33:36.549Z,7.83
2018-05-15T21:36:04.763Z,7.93
2018-05-15T21:38:32.891Z,8.50
2018-05-15T21:41:01.029Z,8.20
2018-05-15T21:43:29.213Z,8.10
2018-05-15T21:45:57.337Z,8.30
2018-05-15T21:48:26.228Z,7.90
2018-05-15T21:50:55.256Z,9.13
2018-05-15T21:53:23.398Z,8.30
2018-05-15T21:55:52.399Z,8.43
2018-05-15T21:58:20.575Z,8.40
2018-05-15T22:00:48.713Z,8.47
2018-05-15T22:03:18.383Z,8.80
2018-05-15T22:05:46.569Z,9.10
2018-05-15T22:08:14.693Z,8.37
2018-05-15T22:10:43.589Z,9.07
2018-05-15T22:13:24.341Z,8.90
2018-05-15T22:16:05.349Z,8.57
2018-05-15T22:18:45.609Z,8.50
2018-05-15T22:21:25.551Z,9.93
2018-05-15T22:23:53.216Z,9.23
2018-05-15T22:26:21.387Z,9.50
2018-05-15T22:28:49.513Z,9.60
2018-05-15T22:31:17.672Z,9.47
2018-05-15T22:33:45.821Z,10.13
2018-05-15T22:36:13.972Z,9.60
2018-05-15T22:38:42.853Z,9.73
2018-05-15T22:41:11.764Z,10.73
2018-05-15T22:43:39.913Z,9.93
2018-05-15T22:46:08.820Z,10.10
2018-05-15T22:48:36.959Z,10.37
2018-05-15T22:51:05.089Z,9.80
2018-05-15T22:53:33.254Z,9.43
2018-05-15T22:56:01.427Z,9.60
2018-05-15T22:58:29.588Z,9.30
2018-05-15T23:00:57.722Z,9.20
2018-05-15T23:03:25.876Z,9.70
2018-05-15T23:05:54.017Z,9.20
2018-05-15T23:08:22.272Z,9.37
2018-05-15T23:10:51.188Z,9.03
2018-05-15T23:13:19.315Z,9.30
2018-05-15T23:15:48.228Z,8.60
2018-05-15T23:18:16.272Z,8.80
2018-05-15T23:20:44.400Z,8.63
2018-05-15T23:23:12.568Z,8.63
2018-05-15T23:25:40.701Z,8.67
2018-05-15T23:28:08.818Z,8.27
2018-05-15T23:30:36.980Z,8.13
2018-05-15T23:33:05.121Z,8.30
2018-05-15T23:35:33.261Z,7.93
2018-05-15T23:38:01.380Z,8.27
2018-05-15T23:40:30.268Z,8.50
2018-05-15T23:42:59.280Z,7.60
2018-05-15T23:45:27.446Z,9.07
2018-05-15T23:47:56.344Z,8.30
2018-05-15T23:50:24.507Z,8.40
2018-05-15T23:52:53.421Z,8.10
2018-05-15T23:55:21.597Z,8.30
2018-05-15T23:57:49.719Z,8.50
